Time;durP1;ratioP1;P1;durP2;ratioP2;P2;SDS_P1;SDS_P2;PMS_P1;PMS_P2;Temp;Humidity;BMP_temperature;BMP_pressure;BME280_temperature;BME280_humidity;BME280_pressure;Samples;Min_cycle;Max_cycle;Signal;HPM_P1;HPM_P2
2022/08/14 00:01:56;;;;;;;;;;;25.10;42.70;;;;;;5051764;28;19924;-57
2022/08/14 00:04:22;;;;;;;;;;;25.00;42.00;;;;;;5052051;28;19921;-56
2022/08/14 00:06:47;;;;;;;;;;;25.00;42.20;;;;;;5060289;28;19912;-55
2022/08/14 00:09:13;;;;;;;;;;;25.00;42.40;;;;;;5070955;28;19915;-56
2022/08/14 00:11:39;;;;;;;;;;;25.00;42.90;;;;;;5070937;28;20331;-55
2022/08/14 00:14:04;;;;;;;;;;;25.00;43.30;;;;;;5071312;28;19909;-58
2022/08/14 00:16:31;;;;;;;;;;;24.90;42.70;;;;;;5070783;28;20016;-56
2022/08/14 00:18:56;;;;;;;;;;;24.90;43.10;;;;;;5057136;28;20429;-56
2022/08/14 00:21:22;;;;;;;;;;;24.90;43.20;;;;;;5051127;28;20014;-55
2022/08/14 00:23:48;;;;;;;;;;;24.80;43.50;;;;;;5064566;28;19912;-56
2022/08/14 00:26:14;;;;;;;;;;;24.80;43.10;;;;;;5071508;28;19961;-56
2022/08/14 00:28:39;;;;;;;;;;;24.70;44.30;;;;;;5046195;28;19916;-56
2022/08/14 00:31:05;;;;;;;;;;;24.70;43.30;;;;;;5065552;28;19909;-56
2022/08/14 00:33:31;;;;;;;;;;;24.60;43.30;;;;;;5051449;28;20412;-53
2022/08/14 00:35:57;;;;;;;;;;;24.60;43.30;;;;;;5048611;28;19917;-56
2022/08/14 00:38:22;;;;;;;;;;;24.60;43.80;;;;;;5069707;28;19913;-55
2022/08/14 00:40:48;;;;;;;;;;;24.60;44.00;;;;;;5070671;28;20377;-57
2022/08/14 00:43:14;;;;;;;;;;;24.50;43.60;;;;;;5070940;28;19971;-54
2022/08/14 00:45:39;;;;;;;;;;;24.50;43.60;;;;;;5069546;28;19916;-57
2022/08/14 00:48:05;;;;;;;;;;;24.50;43.70;;;;;;5069846;28;19909;-53
2022/08/14 00:50:31;;;;;;;;;;;24.50;44.80;;;;;;5060541;28;19915;-56
2022/08/14 00:52:58;;;;;;;;;;;24.40;44.10;;;;;;5051376;28;19959;-56
2022/08/14 00:55:26;;;;;;;;;;;24.40;44.80;;;;;;5051211;28;19953;-57
2022/08/14 01:00:35;;;;;;;;;;;24.40;44.10;;;;;;5051713;28;19916;-57
2022/08/14 01:03:01;;;;;;;;;;;24.40;44.60;;;;;;5062304;28;20300;-57
2022/08/14 01:05:28;;;;;;;;;;;24.40;44.80;;;;;;5070269;28;19909;-56
2022/08/14 01:07:57;;;;;;;;;;;24.40;44.20;;;;;;5070659;28;19908;-51
2022/08/14 01:10:49;;;;;;;;;;;24.40;44.00;;;;;;5072591;28;19948;-57
2022/08/14 01:13:09;;;;;;;;;;;24.30;45.00;;;;;;5074148;28;19912;-56
2022/08/14 01:15:35;;;;;;;;;;;24.30;44.80;;;;;;5073998;28;20434;-56
2022/08/14 01:21:02;;;;;;;;;;;24.20;44.60;;;;;;5069677;28;19963;-56
2022/08/14 01:23:29;;;;;;;;;;;24.30;44.40;;;;;;5074909;28;20000;-57
2022/08/14 01:25:55;;;;;;;;;;;24.20;45.00;;;;;;5074169;28;19909;-56
2022/08/14 01:28:25;;;;;;;;;;;24.20;44.90;;;;;;5074302;28;19999;-57
2022/08/14 01:30:54;;;;;;;;;;;24.20;44.60;;;;;;5073924;28;19915;-56
2022/08/14 01:33:21;;;;;;;;;;;24.20;45.30;;;;;;5062695;28;19913;-56
2022/08/14 01:35:46;;;;;;;;;;;24.10;46.30;;;;;;5065074;28;19970;-55
2022/08/14 01:38:14;;;;;;;;;;;24.10;45.20;;;;;;5074219;28;19916;-56
2022/08/14 01:40:39;;;;;;;;;;;24.10;45.20;;;;;;5074057;28;19962;-56
2022/08/14 01:43:13;;;;;;;;;;;24.10;45.50;;;;;;5074074;28;19909;-56
2022/08/14 01:45:41;;;;;;;;;;;24.00;45.50;;;;;;5061692;28;21431;-57
2022/08/14 01:48:07;;;;;;;;;;;24.00;45.70;;;;;;5071007;28;19947;-56
2022/08/14 01:50:33;;;;;;;;;;;24.00;45.90;;;;;;5063472;28;19908;-55
2022/08/14 01:52:58;;;;;;;;;;;24.00;45.20;;;;;;5071148;28;19982;-55
2022/08/14 01:55:29;;;;;;;;;;;24.00;45.70;;;;;;5070122;28;19917;-56
2022/08/14 01:57:54;;;;;;;;;;;23.90;46.20;;;;;;5054655;28;19908;-56
2022/08/14 02:00:20;;;;;;;;;;;23.90;46.60;;;;;;5069457;28;20113;-55
2022/08/14 02:02:45;;;;;;;;;;;23.80;45.10;;;;;;5072790;28;19977;-54
2022/08/14 02:05:12;;;;;;;;;;;23.80;46.20;;;;;;5073827;28;19986;-56
2022/08/14 02:07:37;;;;;;;;;;;23.80;45.80;;;;;;5073038;28;20437;-53
2022/08/14 02:10:04;;;;;;;;;;;23.80;46.70;;;;;;5073186;28;19995;-56
2022/08/14 02:12:29;;;;;;;;;;;23.80;46.10;;;;;;5073448;28;20003;-57
2022/08/14 02:14:55;;;;;;;;;;;23.80;46.00;;;;;;5072836;28;20019;-56
2022/08/14 02:17:22;;;;;;;;;;;23.80;46.70;;;;;;5073202;28;19908;-56
2022/08/14 02:19:48;;;;;;;;;;;23.70;46.90;;;;;;5073336;28;19908;-57
2022/08/14 02:22:17;;;;;;;;;;;23.70;46.90;;;;;;5072158;28;20299;-57
2022/08/14 02:24:43;;;;;;;;;;;23.70;46.20;;;;;;5073380;28;19909;-57
2022/08/14 02:27:10;;;;;;;;;;;23.60;46.40;;;;;;5072941;28;19978;-54
2022/08/14 02:29:35;;;;;;;;;;;23.60;47.00;;;;;;5072897;28;19908;-51
2022/08/14 02:32:01;;;;;;;;;;;23.60;47.10;;;;;;5072728;28;19909;-55
2022/08/14 02:34:28;;;;;;;;;;;23.60;47.30;;;;;;5072959;28;20288;-56
2022/08/14 02:36:57;;;;;;;;;;;23.60;46.70;;;;;;5073503;28;19915;-57
2022/08/14 02:39:22;;;;;;;;;;;23.60;47.20;;;;;;5066403;28;19952;-57
2022/08/14 02:41:50;;;;;;;;;;;23.50;47.50;;;;;;5072924;28;19989;-55
2022/08/14 02:44:17;;;;;;;;;;;23.50;47.40;;;;;;5071875;28;19909;-57
2022/08/14 02:46:43;;;;;;;;;;;23.40;47.20;;;;;;5072534;28;20366;-57
2022/08/14 02:49:09;;;;;;;;;;;23.40;47.20;;;;;;5072673;28;19920;-57
2022/08/14 02:51:35;;;;;;;;;;;23.40;47.70;;;;;;5053505;28;19909;-56
2022/08/14 02:54:01;;;;;;;;;;;23.40;47.60;;;;;;5053208;28;19916;-56
2022/08/14 02:56:26;;;;;;;;;;;23.40;47.10;;;;;;5053308;28;19952;-56
2022/08/14 02:58:53;;;;;;;;;;;23.40;47.20;;;;;;5052865;28;20285;-53
2022/08/14 03:01:21;;;;;;;;;;;23.40;47.40;;;;;;5064372;28;19916;-55
2022/08/14 03:03:48;;;;;;;;;;;23.40;47.20;;;;;;5071835;28;19913;-56
2022/08/14 03:06:15;;;;;;;;;;;23.40;47.70;;;;;;5072295;28;19913;-56
2022/08/14 03:08:41;;;;;;;;;;;23.40;47.70;;;;;;5072727;28;19908;-54
2022/08/14 03:11:08;;;;;;;;;;;23.30;47.90;;;;;;5054912;28;19915;-56
2022/08/14 03:13:44;;;;;;;;;;;23.30;47.30;;;;;;5052626;28;19909;-56
2022/08/14 03:16:14;;;;;;;;;;;23.30;48.00;;;;;;5057779;28;19917;-57
2022/08/14 03:18:41;;;;;;;;;;;23.30;49.00;;;;;;5072010;28;19920;-56
2022/08/14 03:21:08;;;;;;;;;;;23.30;48.70;;;;;;5072038;28;19991;-58
2022/08/14 03:23:34;;;;;;;;;;;23.20;48.30;;;;;;5071605;28;19909;-57
2022/08/14 03:26:01;;;;;;;;;;;23.20;47.80;;;;;;5071829;28;20365;-57
2022/08/14 03:28:28;;;;;;;;;;;23.20;47.70;;;;;;5071526;28;20011;-56
2022/08/14 03:30:53;;;;;;;;;;;23.20;47.70;;;;;;5071558;28;19912;-56
2022/08/14 03:33:19;;;;;;;;;;;23.20;47.70;;;;;;5041713;28;19913;-57
2022/08/14 03:35:44;;;;;;;;;;;23.20;48.00;;;;;;5052930;28;19921;-56
2022/08/14 03:38:11;;;;;;;;;;;23.20;48.30;;;;;;5052327;28;20400;-56
2022/08/14 03:40:40;;;;;;;;;;;23.20;48.10;;;;;;5052197;28;19999;-56
2022/08/14 03:43:06;;;;;;;;;;;23.20;47.90;;;;;;5051877;28;20011;-52
2022/08/14 03:45:34;;;;;;;;;;;23.20;47.90;;;;;;5056048;28;20042;-56
2022/08/14 03:48:02;;;;;;;;;;;23.20;48.00;;;;;;5071310;28;19908;-56
2022/08/14 03:50:28;;;;;;;;;;;23.20;48.40;;;;;;5064593;28;19915;-57
2022/08/14 03:52:54;;;;;;;;;;;23.20;48.90;;;;;;5071376;28;19912;-55
2022/08/14 03:55:19;;;;;;;;;;;23.10;48.60;;;;;;5068364;28;19921;-56
2022/08/14 03:57:46;;;;;;;;;;;23.10;48.70;;;;;;5052264;28;20301;-57
2022/08/14 04:00:12;;;;;;;;;;;23.10;48.40;;;;;;5051882;28;19913;-57
2022/08/14 04:02:39;;;;;;;;;;;23.10;49.40;;;;;;5051935;28;20450;-56
2022/08/14 04:05:06;;;;;;;;;;;23.00;48.70;;;;;;5051864;28;20027;-57
2022/08/14 04:07:32;;;;;;;;;;;23.00;49.60;;;;;;5052403;28;19908;-56
2022/08/14 04:09:57;;;;;;;;;;;23.00;48.60;;;;;;5052308;28;20373;-57
2022/08/14 04:12:23;;;;;;;;;;;23.00;49.00;;;;;;5051255;28;19917;-55
2022/08/14 04:14:50;;;;;;;;;;;23.00;48.80;;;;;;5058976;28;19963;-57
2022/08/14 04:17:16;;;;;;;;;;;23.00;49.60;;;;;;5071404;28;19908;-57
2022/08/14 04:19:41;;;;;;;;;;;23.00;49.20;;;;;;5071034;28;19995;-56
2022/08/14 04:22:07;;;;;;;;;;;22.90;49.10;;;;;;5071091;28;19961;-56
2022/08/14 04:24:32;;;;;;;;;;;22.90;49.30;;;;;;5070714;28;19916;-55
2022/08/14 04:26:58;;;;;;;;;;;22.90;49.00;;;;;;5070446;28;19916;-56
2022/08/14 04:29:24;;;;;;;;;;;22.90;49.90;;;;;;5071449;28;20322;-54
2022/08/14 04:31:49;;;;;;;;;;;22.90;49.40;;;;;;5071106;28;19908;-57
2022/08/14 04:34:15;;;;;;;;;;;22.90;49.30;;;;;;5065007;28;19909;-57
2022/08/14 04:44:53;;;;;;;;;;;22.80;49.90;;;;;;5070331;28;20404;-56
2022/08/14 04:50:03;;;;;;;;;;;22.80;50.70;;;;;;5063858;28;20014;-57
2022/08/14 04:52:29;;;;;;;;;;;22.70;49.20;;;;;;5051391;28;19913;-56
2022/08/14 04:54:55;;;;;;;;;;;22.70;49.40;;;;;;5050785;28;20541;-51
2022/08/14 04:57:20;;;;;;;;;;;22.70;50.30;;;;;;5051399;28;19913;-54
2022/08/14 04:59:46;;;;;;;;;;;22.70;49.40;;;;;;5051769;28;19909;-56
2022/08/14 05:02:12;;;;;;;;;;;22.70;50.10;;;;;;5050915;28;19990;-56
2022/08/14 05:04:38;;;;;;;;;;;22.60;49.80;;;;;;5063098;28;19951;-56
2022/08/14 05:07:04;;;;;;;;;;;22.60;50.30;;;;;;5070206;28;19913;-54
2022/08/14 05:09:29;;;;;;;;;;;22.60;49.70;;;;;;5069886;28;19908;-56
2022/08/14 05:11:55;;;;;;;;;;;22.50;50.50;;;;;;5070596;28;20337;-57
2022/08/14 05:14:21;;;;;;;;;;;22.50;50.30;;;;;;5070239;28;19912;-57
2022/08/14 05:16:47;;;;;;;;;;;22.50;49.80;;;;;;5070381;28;19936;-56
2022/08/14 05:19:13;;;;;;;;;;;22.50;50.40;;;;;;5053476;28;19952;-55
2022/08/14 05:21:39;;;;;;;;;;;22.50;50.60;;;;;;5051582;28;19909;-57
2022/08/14 05:24:05;;;;;;;;;;;22.50;50.40;;;;;;5050678;28;19931;-57
2022/08/14 05:26:30;;;;;;;;;;;22.50;50.40;;;;;;5051094;28;19917;-56
2022/08/14 05:28:56;;;;;;;;;;;22.50;50.50;;;;;;5045979;28;20525;-55
2022/08/14 05:31:21;;;;;;;;;;;22.50;50.70;;;;;;5070706;28;20058;-56
2022/08/14 05:33:48;;;;;;;;;;;22.50;51.00;;;;;;5070242;28;19958;-54
2022/08/14 05:36:14;;;;;;;;;;;22.50;50.70;;;;;;5070238;28;19920;-57
2022/08/14 05:38:44;;;;;;;;;;;22.50;50.60;;;;;;5069881;28;19978;-56
2022/08/14 05:41:13;;;;;;;;;;;22.50;50.60;;;;;;5070528;28;19909;-56
2022/08/14 05:43:39;;;;;;;;;;;22.50;51.60;;;;;;5070031;28;19908;-56
2022/08/14 05:46:06;;;;;;;;;;;22.40;51.30;;;;;;5070054;28;19908;-55
2022/08/14 05:48:31;;;;;;;;;;;22.40;51.20;;;;;;5051938;28;20288;-56
2022/08/14 05:50:57;;;;;;;;;;;22.40;50.50;;;;;;5069859;28;19915;-56
2022/08/14 05:53:24;;;;;;;;;;;22.50;50.90;;;;;;5069916;28;19916;-55
2022/08/14 05:55:50;;;;;;;;;;;22.50;51.30;;;;;;5069329;28;20351;-55
2022/08/14 05:58:16;;;;;;;;;;;22.40;51.60;;;;;;5054026;28;19908;-56
2022/08/14 06:00:42;;;;;;;;;;;22.50;51.60;;;;;;5067353;28;19962;-56
2022/08/14 06:03:09;;;;;;;;;;;22.50;51.10;;;;;;5073225;28;20389;-57
2022/08/14 06:05:35;;;;;;;;;;;22.50;51.10;;;;;;5073542;28;20434;-57
2022/08/14 06:08:01;;;;;;;;;;;22.50;50.90;;;;;;5073117;28;19908;-56
2022/08/14 06:10:30;;;;;;;;;;;22.50;51.20;;;;;;5073359;28;19913;-56
2022/08/14 06:12:56;;;;;;;;;;;22.50;51.90;;;;;;5073172;28;19915;-56
2022/08/14 06:15:22;;;;;;;;;;;22.50;52.00;;;;;;5073263;28;19962;-55
2022/08/14 06:17:48;;;;;;;;;;;22.50;51.50;;;;;;5073270;28;19913;-57
2022/08/14 06:20:14;;;;;;;;;;;22.50;51.60;;;;;;5073386;28;19909;-55
2022/08/14 06:22:40;;;;;;;;;;;22.50;51.60;;;;;;5073466;28;19916;-56
2022/08/14 06:25:06;;;;;;;;;;;22.50;52.10;;;;;;5061128;28;19916;-53
2022/08/14 06:27:39;;;;;;;;;;;22.50;52.20;;;;;;5053626;28;19935;-56
2022/08/14 06:30:08;;;;;;;;;;;22.50;51.40;;;;;;5053837;28;19961;-56
2022/08/14 06:32:35;;;;;;;;;;;22.50;51.30;;;;;;5054278;28;20015;-56
2022/08/14 06:35:01;;;;;;;;;;;22.50;52.00;;;;;;5053461;28;20740;-56
2022/08/14 06:37:26;;;;;;;;;;;22.50;51.80;;;;;;5053296;28;19917;-56
2022/08/14 06:39:52;;;;;;;;;;;22.50;52.00;;;;;;5053627;28;20015;-57
2022/08/14 06:42:18;;;;;;;;;;;22.50;52.30;;;;;;5064531;28;19995;-57
2022/08/14 06:44:43;;;;;;;;;;;22.40;52.30;;;;;;5072365;28;19920;-56
2022/08/14 06:47:09;;;;;;;;;;;22.50;51.90;;;;;;5071652;28;19915;-57
2022/08/14 06:49:36;;;;;;;;;;;22.50;52.30;;;;;;5041184;28;19913;-55
2022/08/14 06:52:02;;;;;;;;;;;22.40;52.30;;;;;;5052391;28;19930;-56
2022/08/14 06:54:27;;;;;;;;;;;22.50;52.00;;;;;;5053009;28;20289;-56
2022/08/14 06:56:53;;;;;;;;;;;22.50;52.30;;;;;;5052902;28;19920;-56
2022/08/14 06:59:19;;;;;;;;;;;22.60;52.60;;;;;;5055439;28;19917;-56
2022/08/14 07:07:13;;;;;;;;;;;22.70;52.20;;;;;;5071565;28;20013;-56
2022/08/14 07:09:39;;;;;;;;;;;22.70;53.00;;;;;;5070942;28;20387;-57
2022/08/14 07:12:04;;;;;;;;;;;22.80;53.60;;;;;;5070724;28;20015;-56
2022/08/14 07:14:30;;;;;;;;;;;22.80;52.70;;;;;;5069065;28;19912;-55
2022/08/14 07:16:56;;;;;;;;;;;22.90;53.00;;;;;;5047240;28;19919;-57
2022/08/14 07:19:22;;;;;;;;;;;22.90;53.30;;;;;;5066521;28;20389;-58
2022/08/14 07:21:48;;;;;;;;;;;23.00;52.90;;;;;;5062133;28;19917;-57
2022/08/14 07:24:13;;;;;;;;;;;23.10;52.80;;;;;;5059467;28;19923;-57
2022/08/14 07:26:39;;;;;;;;;;;23.20;53.00;;;;;;5065041;28;19919;-58
2022/08/14 07:29:05;;;;;;;;;;;23.20;53.40;;;;;;5064706;28;19908;-57
2022/08/14 07:31:30;;;;;;;;;;;23.30;53.90;;;;;;5067705;28;19913;-58
2022/08/14 07:33:56;;;;;;;;;;;23.40;53.10;;;;;;5063683;28;20016;-58
2022/08/14 07:36:22;;;;;;;;;;;23.40;53.40;;;;;;5068726;28;20006;-58
2022/08/14 07:38:47;;;;;;;;;;;23.50;52.90;;;;;;5071006;28;20140;-57
2022/08/14 07:41:13;;;;;;;;;;;23.60;53.00;;;;;;5053017;28;20518;-58
2022/08/14 07:43:42;;;;;;;;;;;23.70;52.90;;;;;;5070842;28;19909;-58
2022/08/14 07:46:08;;;;;;;;;;;23.80;52.80;;;;;;5070864;28;19912;-58
2022/08/14 07:48:40;;;;;;;;;;;23.90;53.30;;;;;;5071019;28;19928;-58
2022/08/14 07:51:06;;;;;;;;;;;24.00;52.60;;;;;;5054904;28;20451;-58
2022/08/14 07:53:32;;;;;;;;;;;24.10;52.50;;;;;;5051668;28;19913;-57
2022/08/14 07:55:57;;;;;;;;;;;24.10;52.30;;;;;;5067817;28;19956;-58
2022/08/14 07:58:23;;;;;;;;;;;24.20;52.10;;;;;;5061375;28;19955;-58
2022/08/14 08:00:49;;;;;;;;;;;24.20;52.20;;;;;;5057889;28;19915;-58
2022/08/14 08:03:15;;;;;;;;;;;24.30;52.30;;;;;;5056818;28;20020;-59
2022/08/14 08:05:41;;;;;;;;;;;24.30;53.10;;;;;;5056082;28;19912;-59
2022/08/14 08:08:07;;;;;;;;;;;24.40;53.20;;;;;;5062293;28;19908;-59
2022/08/14 08:10:33;;;;;;;;;;;24.40;53.50;;;;;;5056197;28;19999;-59
2022/08/14 08:13:07;;;;;;;;;;;24.50;53.20;;;;;;5059402;28;20041;-59
2022/08/14 08:15:43;;;;;;;;;;;24.60;53.20;;;;;;5055159;28;20385;-59
2022/08/14 08:18:10;;;;;;;;;;;24.60;53.40;;;;;;5060814;28;19909;-59
2022/08/14 08:20:38;;;;;;;;;;;24.70;53.60;;;;;;5058723;28;19918;-59
2022/08/14 08:23:05;;;;;;;;;;;24.70;53.80;;;;;;5059224;28;19922;-59
2022/08/14 08:25:31;;;;;;;;;;;24.80;53.90;;;;;;5054404;28;19909;-60
2022/08/14 08:27:58;;;;;;;;;;;24.90;54.70;;;;;;5057745;28;19944;-59
2022/08/14 08:30:24;;;;;;;;;;;25.00;55.70;;;;;;5059252;28;19951;-59
2022/08/14 08:32:51;;;;;;;;;;;25.10;55.90;;;;;;5057547;28;19947;-59
2022/08/14 08:35:20;;;;;;;;;;;25.20;55.60;;;;;;5057355;28;19924;-59
2022/08/14 08:37:47;;;;;;;;;;;25.40;55.90;;;;;;5062207;28;20338;-58
2022/08/14 08:40:26;;;;;;;;;;;25.50;56.80;;;;;;5059669;28;19920;-59
2022/08/14 08:42:51;;;;;;;;;;;25.70;57.00;;;;;;5058521;28;19917;-60
2022/08/14 08:45:17;;;;;;;;;;;25.70;57.10;;;;;;5060983;28;19908;-60
2022/08/14 08:47:43;;;;;;;;;;;25.80;57.30;;;;;;5056077;28;19919;-61
2022/08/14 08:50:21;;;;;;;;;;;25.80;57.80;;;;;;5059986;28;19913;-60
2022/08/14 08:52:50;;;;;;;;;;;25.70;57.80;;;;;;5056055;28;19995;-60
2022/08/14 08:55:22;;;;;;;;;;;25.60;57.80;;;;;;5058988;28;20380;-60
2022/08/14 08:57:52;;;;;;;;;;;25.60;57.80;;;;;;5059087;28;19967;-60
2022/08/14 09:00:18;;;;;;;;;;;25.60;57.80;;;;;;5057094;28;19931;-59
2022/08/14 09:03:14;;;;;;;;;;;25.70;58.00;;;;;;5056930;28;20420;-59
2022/08/14 09:05:50;;;;;;;;;;;25.80;57.60;;;;;;5046163;28;19917;-59
2022/08/14 09:08:17;;;;;;;;;;;26.10;57.50;;;;;;5060873;28;19962;-59
2022/08/14 09:10:43;;;;;;;;;;;26.30;57.80;;;;;;5055326;28;20177;-59
2022/08/14 09:13:11;;;;;;;;;;;26.30;57.30;;;;;;5055188;28;20381;-59
2022/08/14 09:15:40;;;;;;;;;;;26.50;57.10;;;;;;5056912;28;19970;-60
2022/08/14 09:18:07;;;;;;;;;;;26.40;57.00;;;;;;5056566;28;19916;-60
2022/08/14 09:20:32;;;;;;;;;;;26.60;57.10;;;;;;5056076;28;20003;-59
2022/08/14 09:22:58;;;;;;;;;;;26.60;57.00;;;;;;5056924;28;20008;-60
2022/08/14 09:25:24;;;;;;;;;;;26.70;57.00;;;;;;5056130;28;19912;-59
2022/08/14 09:27:49;;;;;;;;;;;26.80;56.80;;;;;;5057064;28;20400;-61
2022/08/14 09:30:15;;;;;;;;;;;26.90;56.90;;;;;;5058363;28;20372;-60
2022/08/14 09:32:59;;;;;;;;;;;27.00;56.60;;;;;;5060024;28;19962;-60
2022/08/14 09:35:50;;;;;;;;;;;27.10;56.30;;;;;;5062005;28;19943;-58
2022/08/14 09:38:28;;;;;;;;;;;27.20;56.30;;;;;;5058471;28;19955;-59
2022/08/14 09:40:59;;;;;;;;;;;27.20;55.90;;;;;;5061695;28;19909;-58
2022/08/14 09:43:25;;;;;;;;;;;27.20;55.80;;;;;;5063287;28;19915;-60
2022/08/14 09:45:51;;;;;;;;;;;27.20;55.60;;;;;;5060010;28;20281;-60
2022/08/14 09:48:18;;;;;;;;;;;27.20;55.50;;;;;;5059072;28;19940;-61
2022/08/14 09:50:54;;;;;;;;;;;27.20;55.60;;;;;;5062078;28;19909;-62
2022/08/14 09:53:32;;;;;;;;;;;27.30;55.60;;;;;;5061185;28;19936;-62
2022/08/14 09:55:58;;;;;;;;;;;27.20;55.20;;;;;;5061766;28;23647;-62
2022/08/14 09:58:34;;;;;;;;;;;27.20;55.00;;;;;;5058381;28;19995;-62
2022/08/14 10:01:06;;;;;;;;;;;27.20;55.00;;;;;;5060845;28;19909;-60
2022/08/14 10:03:33;;;;;;;;;;;27.10;54.90;;;;;;5060143;28;19933;-63
2022/08/14 10:06:06;;;;;;;;;;;27.20;55.20;;;;;;5057246;28;19915;-62
2022/08/14 10:08:42;;;;;;;;;;;27.20;55.00;;;;;;5060423;28;19917;-63
2022/08/14 10:11:18;;;;;;;;;;;27.30;55.30;;;;;;5058305;28;19992;-63
2022/08/14 10:13:44;;;;;;;;;;;27.30;55.30;;;;;;5059584;28;20398;-63
2022/08/14 10:16:10;;;;;;;;;;;27.50;54.50;;;;;;5063255;28;19916;-63
2022/08/14 10:18:36;;;;;;;;;;;27.50;54.50;;;;;;5060658;28;20381;-61
2022/08/14 10:21:03;;;;;;;;;;;27.40;54.60;;;;;;5059500;28;19919;-61
2022/08/14 10:23:41;;;;;;;;;;;27.40;54.70;;;;;;5058845;28;19917;-62
2022/08/14 10:26:07;;;;;;;;;;;27.40;54.80;;;;;;5064019;28;20188;-62
2022/08/14 10:28:43;;;;;;;;;;;27.40;54.80;;;;;;5058096;28;19909;-62
2022/08/14 10:31:19;;;;;;;;;;;27.50;54.80;;;;;;5061577;28;19912;-62
2022/08/14 10:33:56;;;;;;;;;;;27.60;55.00;;;;;;5056823;28;19913;-63
2022/08/14 10:36:30;;;;;;;;;;;27.70;54.80;;;;;;5058259;28;20371;-62
2022/08/14 10:38:57;;;;;;;;;;;27.80;54.60;;;;;;5061885;28;20844;-63
2022/08/14 10:41:32;;;;;;;;;;;27.90;54.70;;;;;;5060484;28;19908;-63
2022/08/14 10:44:09;;;;;;;;;;;27.90;54.50;;;;;;5057661;28;19908;-60
2022/08/14 10:46:41;;;;;;;;;;;28.00;54.80;;;;;;5057824;28;19916;-63
2022/08/14 10:49:15;;;;;;;;;;;28.10;54.50;;;;;;5063440;28;20392;-62
2022/08/14 10:51:40;;;;;;;;;;;28.10;54.50;;;;;;5058248;28;19924;-62
2022/08/14 10:54:08;;;;;;;;;;;28.20;54.00;;;;;;5062695;28;19909;-62
2022/08/14 10:56:34;;;;;;;;;;;28.10;54.10;;;;;;5055324;28;19916;-63
2022/08/14 10:59:03;;;;;;;;;;;28.20;53.90;;;;;;5060506;28;19971;-65
2022/08/14 11:01:29;;;;;;;;;;;28.20;53.80;;;;;;5059396;28;19916;-63
2022/08/14 11:03:56;;;;;;;;;;;28.20;53.70;;;;;;5059200;28;20396;-63
2022/08/14 11:06:22;;;;;;;;;;;28.10;53.60;;;;;;5057032;28;19913;-64
2022/08/14 11:08:47;;;;;;;;;;;28.10;53.90;;;;;;5062204;28;19916;-62
2022/08/14 11:11:13;;;;;;;;;;;28.10;54.10;;;;;;5067158;28;19959;-60
2022/08/14 11:13:42;;;;;;;;;;;28.20;54.10;;;;;;5057068;28;19970;-61
2022/08/14 11:16:08;;;;;;;;;;;28.40;54.20;;;;;;5059463;28;19921;-60
2022/08/14 11:18:35;;;;;;;;;;;28.50;54.20;;;;;;5058220;28;20381;-60
2022/08/14 11:21:01;;;;;;;;;;;28.60;54.30;;;;;;5059747;28;19920;-60
2022/08/14 11:23:28;;;;;;;;;;;28.60;54.70;;;;;;5062048;28;20280;-60
2022/08/14 11:25:55;;;;;;;;;;;28.60;54.60;;;;;;5059402;28;19979;-61
2022/08/14 11:28:21;;;;;;;;;;;28.60;54.70;;;;;;5052361;28;19912;-61
2022/08/14 11:30:47;;;;;;;;;;;28.60;54.80;;;;;;5060932;28;19908;-61
2022/08/14 11:33:13;;;;;;;;;;;28.60;54.70;;;;;;5057692;28;20337;-60
2022/08/14 11:35:40;;;;;;;;;;;28.70;54.90;;;;;;5059336;28;20019;-60
2022/08/14 11:38:06;;;;;;;;;;;28.70;54.70;;;;;;5057593;28;19944;-62
2022/08/14 11:40:33;;;;;;;;;;;28.70;54.80;;;;;;5058660;28;19913;-60
2022/08/14 11:43:00;;;;;;;;;;;28.70;54.60;;;;;;5059812;28;19954;-61
2022/08/14 11:45:27;;;;;;;;;;;28.70;55.00;;;;;;5058335;28;19917;-60
2022/08/14 11:47:54;;;;;;;;;;;28.80;55.10;;;;;;5057369;28;19974;-60
2022/08/14 11:50:22;;;;;;;;;;;28.80;55.60;;;;;;5057992;28;19996;-60
2022/08/14 11:52:47;;;;;;;;;;;28.70;56.10;;;;;;5059646;28;19913;-60
2022/08/14 11:55:13;;;;;;;;;;;28.60;57.20;;;;;;5059320;28;19929;-61
2022/08/14 11:57:40;;;;;;;;;;;28.50;57.00;;;;;;5058465;28;20325;-60
2022/08/14 12:00:08;;;;;;;;;;;28.50;58.10;;;;;;5059561;28;19956;-60
2022/08/14 12:02:34;;;;;;;;;;;28.40;57.60;;;;;;5058088;28;19924;-60
2022/08/14 12:04:59;;;;;;;;;;;28.40;58.20;;;;;;5058475;28;19923;-60
2022/08/14 12:07:25;;;;;;;;;;;28.30;58.40;;;;;;5061402;28;19916;-60
2022/08/14 12:09:52;;;;;;;;;;;28.10;57.60;;;;;;5058709;28;19912;-60
2022/08/14 12:12:21;;;;;;;;;;;28.00;58.50;;;;;;5057451;28;19948;-60
2022/08/14 12:14:47;;;;;;;;;;;27.90;59.50;;;;;;5054478;28;19912;-60
2022/08/14 12:17:13;;;;;;;;;;;27.80;59.60;;;;;;5055391;28;19916;-62
2022/08/14 12:20:05;;;;;;;;;;;27.70;59.40;;;;;;5060197;28;19959;-61
2022/08/14 12:22:31;;;;;;;;;;;27.50;60.10;;;;;;5055344;28;20647;-60
2022/08/14 12:24:57;;;;;;;;;;;27.40;60.30;;;;;;5059218;28;20466;-60
2022/08/14 12:27:23;;;;;;;;;;;27.30;59.50;;;;;;5056298;28;19919;-60
2022/08/14 12:29:50;;;;;;;;;;;27.20;59.70;;;;;;5058132;28;19913;-60
2022/08/14 12:32:16;;;;;;;;;;;27.20;60.30;;;;;;5055954;28;19995;-60
2022/08/14 12:34:41;;;;;;;;;;;27.10;60.40;;;;;;5058785;28;20487;-59
2022/08/14 12:37:07;;;;;;;;;;;27.00;61.50;;;;;;5057596;28;19969;-58
2022/08/14 12:39:34;;;;;;;;;;;27.00;64.10;;;;;;5058207;28;19956;-59
2022/08/14 12:42:06;;;;;;;;;;;26.90;65.50;;;;;;5057494;28;19999;-59
2022/08/14 12:44:35;;;;;;;;;;;26.80;66.20;;;;;;5058253;28;19917;-59
2022/08/14 12:47:04;;;;;;;;;;;26.60;64.40;;;;;;5060973;28;19917;-59
2022/08/14 12:49:30;;;;;;;;;;;26.60;66.00;;;;;;5054392;28;19979;-59
2022/08/14 12:51:57;;;;;;;;;;;26.60;64.90;;;;;;5057169;28;20412;-60
2022/08/14 12:54:22;;;;;;;;;;;26.60;65.90;;;;;;5052718;28;19920;-58
2022/08/14 12:56:48;;;;;;;;;;;26.60;64.90;;;;;;5057080;28;19921;-60
2022/08/14 12:59:15;;;;;;;;;;;26.60;67.90;;;;;;5059112;28;20388;-59
2022/08/14 13:01:41;;;;;;;;;;;26.50;65.90;;;;;;5057190;28;19924;-59
2022/08/14 13:04:15;;;;;;;;;;;26.50;67.10;;;;;;5056182;28;19916;-60
2022/08/14 13:06:44;;;;;;;;;;;26.50;66.40;;;;;;5061672;28;19913;-61
2022/08/14 13:09:12;;;;;;;;;;;26.40;68.40;;;;;;5062396;28;19912;-59
2022/08/14 13:11:40;;;;;;;;;;;26.40;66.80;;;;;;5059364;28;20430;-60
2022/08/14 13:14:07;;;;;;;;;;;26.40;67.80;;;;;;5060968;28;19916;-59
2022/08/14 13:16:33;;;;;;;;;;;26.30;67.60;;;;;;5059776;28;19920;-58
2022/08/14 13:19:00;;;;;;;;;;;26.30;67.10;;;;;;5061725;28;19913;-59
2022/08/14 13:21:27;;;;;;;;;;;26.20;67.80;;;;;;5062298;28;19919;-59
2022/08/14 13:23:56;;;;;;;;;;;26.20;66.80;;;;;;5062742;28;19966;-60
2022/08/14 13:26:25;;;;;;;;;;;26.10;67.80;;;;;;5059114;28;20015;-59
2022/08/14 13:28:51;;;;;;;;;;;26.10;68.00;;;;;;5060651;28;20004;-59
2022/08/14 13:31:18;;;;;;;;;;;26.10;68.80;;;;;;5059170;28;20019;-59
2022/08/14 13:33:44;;;;;;;;;;;26.10;68.70;;;;;;5063725;28;19913;-60
2022/08/14 13:36:10;;;;;;;;;;;26.00;68.70;;;;;;5057094;28;19931;-60
2022/08/14 13:38:36;;;;;;;;;;;26.00;70.00;;;;;;5066768;28;19915;-59
2022/08/14 13:41:02;;;;;;;;;;;26.10;69.30;;;;;;5064143;28;19944;-59
2022/08/14 13:43:28;;;;;;;;;;;26.10;69.10;;;;;;5067699;28;19919;-60
2022/08/14 13:45:54;;;;;;;;;;;26.10;68.90;;;;;;5063770;28;20304;-60
2022/08/14 13:48:21;;;;;;;;;;;26.20;69.30;;;;;;5062251;28;19973;-60
2022/08/14 13:50:50;;;;;;;;;;;26.20;69.80;;;;;;5057582;28;19951;-60
2022/08/14 13:53:16;;;;;;;;;;;26.20;69.00;;;;;;5063311;28;19979;-59
2022/08/14 13:55:43;;;;;;;;;;;26.20;68.50;;;;;;5062241;28;20007;-60
2022/08/14 13:58:09;;;;;;;;;;;26.30;68.60;;;;;;5062474;28;20400;-60
2022/08/14 14:00:36;;;;;;;;;;;26.40;69.70;;;;;;5060907;28;19928;-60
2022/08/14 14:03:06;;;;;;;;;;;26.50;70.50;;;;;;5059212;28;20026;-61
2022/08/14 14:05:35;;;;;;;;;;;26.60;70.20;;;;;;5062326;28;20075;-60
2022/08/14 14:08:03;;;;;;;;;;;26.70;70.80;;;;;;5058330;28;20750;-60
2022/08/14 14:10:31;;;;;;;;;;;26.80;69.00;;;;;;5045839;28;19912;-60
2022/08/14 14:12:57;;;;;;;;;;;26.90;68.60;;;;;;5057835;28;19966;-60
2022/08/14 14:15:22;;;;;;;;;;;27.00;69.20;;;;;;5060947;28;19916;-59
2022/08/14 14:17:48;;;;;;;;;;;27.00;68.80;;;;;;5054601;28;19925;-60
2022/08/14 14:20:15;;;;;;;;;;;27.10;68.60;;;;;;5063278;28;19920;-60
2022/08/14 14:22:45;;;;;;;;;;;27.20;68.80;;;;;;5058744;28;19916;-59
2022/08/14 14:25:13;;;;;;;;;;;27.20;68.40;;;;;;5065361;28;20027;-60
2022/08/14 14:27:43;;;;;;;;;;;27.30;68.20;;;;;;5058899;28;19913;-59
2022/08/14 14:30:09;;;;;;;;;;;27.30;68.10;;;;;;5059588;28;19924;-60
2022/08/14 14:32:42;;;;;;;;;;;27.30;67.90;;;;;;5056915;28;19913;-59
2022/08/14 14:35:13;;;;;;;;;;;27.40;67.50;;;;;;5058744;28;19921;-59
2022/08/14 14:37:39;;;;;;;;;;;27.30;67.00;;;;;;5059196;28;19920;-62
2022/08/14 14:40:05;;;;;;;;;;;27.20;67.00;;;;;;5061403;28;20360;-60